sensor_id;sensor_type;location;lat;lon;timestamp;temperature;humidity
11894;DHT22;6006;49.696;8.662;2023-02-05T00:00:27;3.20;99.90
11894;DHT22;6006;49.696;8.662;2023-02-05T00:02:54;3.20;99.90
11894;DHT22;6006;49.696;8.662;2023-02-05T00:05:21;3.20;99.90
11894;DHT22;6006;49.696;8.662;2023-02-05T00:07:49;3.20;99.90
11894;DHT22;6006;49.696;8.662;2023-02-05T00:10:16;3.20;99.90
11894;DHT22;6006;49.696;8.662;2023-02-05T00:12:43;3.30;99.90
11894;DHT22;6006;49.696;8.662;2023-02-05T00:15:10;3.30;99.90
11894;DHT22;6006;49.696;8.662;2023-02-05T00:17:37;3.40;99.90
11894;DHT22;6006;49.696;8.662;2023-02-05T00:20:05;3.40;99.90
11894;DHT22;6006;49.696;8.662;2023-02-05T00:22:33;3.40;99.90
11894;DHT22;6006;49.696;8.662;2023-02-05T00:25:01;3.40;99.90
11894;DHT22;6006;49.696;8.662;2023-02-05T00:27:28;3.40;99.90
11894;DHT22;6006;49.696;8.662;2023-02-05T00:29:55;3.40;99.90
11894;DHT22;6006;49.696;8.662;2023-02-05T00:32:22;3.40;99.90
11894;DHT22;6006;49.696;8.662;2023-02-05T00:34:49;3.40;99.90
11894;DHT22;6006;49.696;8.662;2023-02-05T00:37:16;3.40;99.90
11894;DHT22;6006;49.696;8.662;2023-02-05T00:39:42;3.40;99.90
11894;DHT22;6006;49.696;8.662;2023-02-05T00:42:11;3.40;99.90
11894;DHT22;6006;49.696;8.662;2023-02-05T00:44:38;3.40;99.90
11894;DHT22;6006;49.696;8.662;2023-02-05T00:47:04;3.40;99.90
11894;DHT22;6006;49.696;8.662;2023-02-05T00:49:31;3.40;99.90
11894;DHT22;6006;49.696;8.662;2023-02-05T00:51:58;3.40;99.90
11894;DHT22;6006;49.696;8.662;2023-02-05T00:54:25;3.50;99.90
11894;DHT22;6006;49.696;8.662;2023-02-05T00:56:52;3.40;99.90
11894;DHT22;6006;49.696;8.662;2023-02-05T00:59:20;3.40;99.90
11894;DHT22;6006;49.696;8.662;2023-02-05T01:01:48;3.50;99.90
11894;DHT22;6006;49.696;8.662;2023-02-05T01:04:15;3.40;99.90
11894;DHT22;6006;49.696;8.662;2023-02-05T01:06:42;3.40;99.90
11894;DHT22;6006;49.696;8.662;2023-02-05T01:09:09;3.40;99.90
11894;DHT22;6006;49.696;8.662;2023-02-05T01:11:35;3.30;99.90
11894;DHT22;6006;49.696;8.662;2023-02-05T01:14:02;3.30;99.90
11894;DHT22;6006;49.696;8.662;2023-02-05T01:16:31;3.20;99.90
11894;DHT22;6006;49.696;8.662;2023-02-05T01:18:57;3.10;99.90
11894;DHT22;6006;49.696;8.662;2023-02-05T01:21:24;3.10;99.90
11894;DHT22;6006;49.696;8.662;2023-02-05T01:23:51;2.90;99.90
11894;DHT22;6006;49.696;8.662;2023-02-05T01:26:19;2.80;99.90
11894;DHT22;6006;49.696;8.662;2023-02-05T01:28:45;2.70;99.90
11894;DHT22;6006;49.696;8.662;2023-02-05T01:31:13;2.70;99.90
11894;DHT22;6006;49.696;8.662;2023-02-05T01:33:41;2.60;99.90
11894;DHT22;6006;49.696;8.662;2023-02-05T01:36:08;2.50;99.90
11894;DHT22;6006;49.696;8.662;2023-02-05T01:38:35;2.30;99.90
11894;DHT22;6006;49.696;8.662;2023-02-05T01:41:02;2.20;99.90
11894;DHT22;6006;49.696;8.662;2023-02-05T01:43:31;2.10;99.90
11894;DHT22;6006;49.696;8.662;2023-02-05T01:46:20;2.00;99.90
11894;DHT22;6006;49.696;8.662;2023-02-05T01:48:52;2.00;99.90
11894;DHT22;6006;49.696;8.662;2023-02-05T01:51:20;1.90;99.90
11894;DHT22;6006;49.696;8.662;2023-02-05T01:53:49;1.90;99.90
11894;DHT22;6006;49.696;8.662;2023-02-05T01:56:22;1.90;99.90
11894;DHT22;6006;49.696;8.662;2023-02-05T01:58:54;1.90;99.90
11894;DHT22;6006;49.696;8.662;2023-02-05T02:01:23;1.90;99.90
11894;DHT22;6006;49.696;8.662;2023-02-05T02:03:53;1.90;99.90
11894;DHT22;6006;49.696;8.662;2023-02-05T02:06:21;1.90;99.90
11894;DHT22;6006;49.696;8.662;2023-02-05T02:08:48;1.90;99.90
11894;DHT22;6006;49.696;8.662;2023-02-05T02:11:17;1.90;99.90
11894;DHT22;6006;49.696;8.662;2023-02-05T02:13:46;1.90;99.90
11894;DHT22;6006;49.696;8.662;2023-02-05T02:16:14;1.90;99.90
11894;DHT22;6006;49.696;8.662;2023-02-05T02:18:41;1.90;99.90
11894;DHT22;6006;49.696;8.662;2023-02-05T02:21:37;1.90;99.90
11894;DHT22;6006;49.696;8.662;2023-02-05T02:27:39;2.00;99.90
11894;DHT22;6006;49.696;8.662;2023-02-05T02:30:11;2.00;99.90
11894;DHT22;6006;49.696;8.662;2023-02-05T02:32:44;2.00;99.90
11894;DHT22;6006;49.696;8.662;2023-02-05T02:35:16;2.10;99.90
11894;DHT22;6006;49.696;8.662;2023-02-05T02:37:47;2.10;99.90
11894;DHT22;6006;49.696;8.662;2023-02-05T02:40:20;2.10;99.90
11894;DHT22;6006;49.696;8.662;2023-02-05T02:42:53;2.10;99.90
11894;DHT22;6006;49.696;8.662;2023-02-05T02:45:22;2.00;99.90
11894;DHT22;6006;49.696;8.662;2023-02-05T02:47:56;2.00;99.90
11894;DHT22;6006;49.696;8.662;2023-02-05T02:50:26;2.00;99.90
11894;DHT22;6006;49.696;8.662;2023-02-05T02:53:00;1.90;99.90
11894;DHT22;6006;49.696;8.662;2023-02-05T02:55:30;1.90;99.90
11894;DHT22;6006;49.696;8.662;2023-02-05T02:58:03;1.90;99.90
11894;DHT22;6006;49.696;8.662;2023-02-05T03:00:31;1.90;99.90
11894;DHT22;6006;49.696;8.662;2023-02-05T03:03:01;1.90;99.90
11894;DHT22;6006;49.696;8.662;2023-02-05T03:05:31;1.90;99.90
11894;DHT22;6006;49.696;8.662;2023-02-05T03:08:03;1.90;99.90
11894;DHT22;6006;49.696;8.662;2023-02-05T03:10:35;1.90;99.90
11894;DHT22;6006;49.696;8.662;2023-02-05T03:13:08;1.90;99.90
11894;DHT22;6006;49.696;8.662;2023-02-05T03:15:36;2.00;99.90
11894;DHT22;6006;49.696;8.662;2023-02-05T03:18:04;2.00;99.90
11894;DHT22;6006;49.696;8.662;2023-02-05T03:20:34;1.90;99.90
11894;DHT22;6006;49.696;8.662;2023-02-05T03:23:02;2.00;99.90
11894;DHT22;6006;49.696;8.662;2023-02-05T03:25:29;1.90;99.90
11894;DHT22;6006;49.696;8.662;2023-02-05T03:27:57;1.90;99.90
11894;DHT22;6006;49.696;8.662;2023-02-05T03:30:30;1.90;99.90
11894;DHT22;6006;49.696;8.662;2023-02-05T03:33:03;2.00;99.90
11894;DHT22;6006;49.696;8.662;2023-02-05T03:35:39;2.00;99.90
11894;DHT22;6006;49.696;8.662;2023-02-05T03:38:21;2.00;99.90
11894;DHT22;6006;49.696;8.662;2023-02-05T03:40:56;2.00;99.90
11894;DHT22;6006;49.696;8.662;2023-02-05T03:43:31;2.00;99.90
11894;DHT22;6006;49.696;8.662;2023-02-05T03:46:08;2.10;99.90
11894;DHT22;6006;49.696;8.662;2023-02-05T03:48:50;2.10;99.90
11894;DHT22;6006;49.696;8.662;2023-02-05T03:51:28;2.10;99.90
11894;DHT22;6006;49.696;8.662;2023-02-05T03:54:02;2.10;99.90
11894;DHT22;6006;49.696;8.662;2023-02-05T03:56:36;2.10;99.90
11894;DHT22;6006;49.696;8.662;2023-02-05T03:59:05;2.10;99.90
11894;DHT22;6006;49.696;8.662;2023-02-05T04:01:34;2.10;99.90
11894;DHT22;6006;49.696;8.662;2023-02-05T04:04:01;2.10;99.90
11894;DHT22;6006;49.696;8.662;2023-02-05T04:06:28;2.20;99.90
11894;DHT22;6006;49.696;8.662;2023-02-05T04:08:55;2.20;99.90
11894;DHT22;6006;49.696;8.662;2023-02-05T04:11:22;2.20;99.90
11894;DHT22;6006;49.696;8.662;2023-02-05T04:13:49;2.30;99.90
11894;DHT22;6006;49.696;8.662;2023-02-05T04:16:16;2.30;99.90
11894;DHT22;6006;49.696;8.662;2023-02-05T04:18:44;2.30;99.90
11894;DHT22;6006;49.696;8.662;2023-02-05T04:21:11;2.30;99.90
11894;DHT22;6006;49.696;8.662;2023-02-05T04:23:38;2.30;99.90
11894;DHT22;6006;49.696;8.662;2023-02-05T04:26:04;2.40;99.90
11894;DHT22;6006;49.696;8.662;2023-02-05T04:28:31;2.40;99.90
11894;DHT22;6006;49.696;8.662;2023-02-05T04:30:58;2.40;99.90
11894;DHT22;6006;49.696;8.662;2023-02-05T04:33:25;2.40;99.90
11894;DHT22;6006;49.696;8.662;2023-02-05T04:35:58;2.40;99.90
11894;DHT22;6006;49.696;8.662;2023-02-05T04:38:25;2.40;99.90
11894;DHT22;6006;49.696;8.662;2023-02-05T04:40:53;2.50;99.90
11894;DHT22;6006;49.696;8.662;2023-02-05T04:43:20;2.50;99.90
11894;DHT22;6006;49.696;8.662;2023-02-05T04:45:47;2.50;99.90
11894;DHT22;6006;49.696;8.662;2023-02-05T04:48:14;2.60;99.90
11894;DHT22;6006;49.696;8.662;2023-02-05T04:50:41;2.60;99.90
11894;DHT22;6006;49.696;8.662;2023-02-05T04:53:09;2.60;99.90
11894;DHT22;6006;49.696;8.662;2023-02-05T04:55:36;2.60;99.90
11894;DHT22;6006;49.696;8.662;2023-02-05T04:58:03;2.60;99.90
11894;DHT22;6006;49.696;8.662;2023-02-05T05:00:30;2.60;99.90
11894;DHT22;6006;49.696;8.662;2023-02-05T05:02:57;2.60;99.90
11894;DHT22;6006;49.696;8.662;2023-02-05T05:05:23;2.60;99.90
11894;DHT22;6006;49.696;8.662;2023-02-05T05:07:50;2.60;99.90
11894;DHT22;6006;49.696;8.662;2023-02-05T05:10:19;2.60;99.90
11894;DHT22;6006;49.696;8.662;2023-02-05T05:12:46;2.60;99.90
11894;DHT22;6006;49.696;8.662;2023-02-05T05:15:12;2.70;99.90
11894;DHT22;6006;49.696;8.662;2023-02-05T05:17:39;2.70;99.90
11894;DHT22;6006;49.696;8.662;2023-02-05T05:20:07;2.70;99.90
11894;DHT22;6006;49.696;8.662;2023-02-05T05:22:34;2.70;99.90
11894;DHT22;6006;49.696;8.662;2023-02-05T05:25:01;2.70;99.90
11894;DHT22;6006;49.696;8.662;2023-02-05T05:27:29;2.80;99.90
11894;DHT22;6006;49.696;8.662;2023-02-05T05:29:56;2.80;99.90
11894;DHT22;6006;49.696;8.662;2023-02-05T05:32:23;2.70;99.90
11894;DHT22;6006;49.696;8.662;2023-02-05T05:34:50;2.80;99.90
11894;DHT22;6006;49.696;8.662;2023-02-05T05:37:17;2.70;99.90
11894;DHT22;6006;49.696;8.662;2023-02-05T05:39:43;2.80;99.90
11894;DHT22;6006;49.696;8.662;2023-02-05T05:42:29;2.80;99.90
11894;DHT22;6006;49.696;8.662;2023-02-05T05:45:22;2.80;99.90
11894;DHT22;6006;49.696;8.662;2023-02-05T05:47:49;2.90;99.90
11894;DHT22;6006;49.696;8.662;2023-02-05T05:50:16;2.90;99.90
11894;DHT22;6006;49.696;8.662;2023-02-05T05:52:42;2.90;99.90
11894;DHT22;6006;49.696;8.662;2023-02-05T05:55:09;2.90;99.90
11894;DHT22;6006;49.696;8.662;2023-02-05T05:57:38;2.90;99.90
11894;DHT22;6006;49.696;8.662;2023-02-05T06:00:05;2.90;99.90
11894;DHT22;6006;49.696;8.662;2023-02-05T06:02:32;2.90;99.90
11894;DHT22;6006;49.696;8.662;2023-02-05T06:04:59;2.90;99.90
11894;DHT22;6006;49.696;8.662;2023-02-05T06:07:26;2.90;99.90
11894;DHT22;6006;49.696;8.662;2023-02-05T06:09:54;2.90;99.90
11894;DHT22;6006;49.696;8.662;2023-02-05T06:12:20;2.90;99.90
11894;DHT22;6006;49.696;8.662;2023-02-05T06:14:49;2.90;99.90
11894;DHT22;6006;49.696;8.662;2023-02-05T06:17:15;2.90;99.90
11894;DHT22;6006;49.696;8.662;2023-02-05T06:19:42;2.90;99.90
11894;DHT22;6006;49.696;8.662;2023-02-05T06:22:09;3.00;99.90
11894;DHT22;6006;49.696;8.662;2023-02-05T06:24:36;3.00;99.90
11894;DHT22;6006;49.696;8.662;2023-02-05T06:27:03;3.00;99.90
11894;DHT22;6006;49.696;8.662;2023-02-05T06:29:30;3.00;99.90
11894;DHT22;6006;49.696;8.662;2023-02-05T06:31:58;3.00;99.90
11894;DHT22;6006;49.696;8.662;2023-02-05T06:34:25;3.00;99.90
11894;DHT22;6006;49.696;8.662;2023-02-05T06:36:52;3.10;99.90
11894;DHT22;6006;49.696;8.662;2023-02-05T06:39:19;3.10;99.90
11894;DHT22;6006;49.696;8.662;2023-02-05T06:41:45;3.10;99.90
11894;DHT22;6006;49.696;8.662;2023-02-05T06:44:12;3.10;99.90
11894;DHT22;6006;49.696;8.662;2023-02-05T06:46:39;3.10;99.90
11894;DHT22;6006;49.696;8.662;2023-02-05T06:49:07;3.10;99.90
11894;DHT22;6006;49.696;8.662;2023-02-05T06:51:34;3.10;99.90
11894;DHT22;6006;49.696;8.662;2023-02-05T06:54:01;3.10;99.90
11894;DHT22;6006;49.696;8.662;2023-02-05T06:56:28;3.10;99.90
11894;DHT22;6006;49.696;8.662;2023-02-05T06:58:55;3.00;99.90
11894;DHT22;6006;49.696;8.662;2023-02-05T07:01:22;3.00;99.90
11894;DHT22;6006;49.696;8.662;2023-02-05T07:03:48;3.00;99.90
11894;DHT22;6006;49.696;8.662;2023-02-05T07:06:20;3.00;99.90
11894;DHT22;6006;49.696;8.662;2023-02-05T07:08:48;3.10;99.90
11894;DHT22;6006;49.696;8.662;2023-02-05T07:11:15;3.10;99.90
11894;DHT22;6006;49.696;8.662;2023-02-05T07:13:42;3.10;99.90
11894;DHT22;6006;49.696;8.662;2023-02-05T07:16:09;3.10;99.90
11894;DHT22;6006;49.696;8.662;2023-02-05T07:18:36;3.20;99.90
11894;DHT22;6006;49.696;8.662;2023-02-05T07:21:04;3.20;99.90
11894;DHT22;6006;49.696;8.662;2023-02-05T07:23:32;3.70;99.90
11894;DHT22;6006;49.696;8.662;2023-02-05T07:26:05;3.90;99.90
11894;DHT22;6006;49.696;8.662;2023-02-05T07:28:32;3.70;99.90
11894;DHT22;6006;49.696;8.662;2023-02-05T07:31:02;3.70;99.90
11894;DHT22;6006;49.696;8.662;2023-02-05T07:33:29;3.60;99.90
11894;DHT22;6006;49.696;8.662;2023-02-05T07:35:56;3.50;99.90
11894;DHT22;6006;49.696;8.662;2023-02-05T07:38:23;3.50;99.90
11894;DHT22;6006;49.696;8.662;2023-02-05T07:40:51;3.40;99.90
11894;DHT22;6006;49.696;8.662;2023-02-05T07:43:18;3.40;99.90
11894;DHT22;6006;49.696;8.662;2023-02-05T07:45:45;3.40;99.90
11894;DHT22;6006;49.696;8.662;2023-02-05T07:48:12;3.50;99.90
11894;DHT22;6006;49.696;8.662;2023-02-05T07:50:42;3.50;99.90
11894;DHT22;6006;49.696;8.662;2023-02-05T07:53:09;3.50;99.90
11894;DHT22;6006;49.696;8.662;2023-02-05T07:55:36;3.50;99.90
11894;DHT22;6006;49.696;8.662;2023-02-05T07:58:04;3.60;99.90
11894;DHT22;6006;49.696;8.662;2023-02-05T08:00:31;3.50;99.90
11894;DHT22;6006;49.696;8.662;2023-02-05T08:02:58;3.50;99.90
11894;DHT22;6006;49.696;8.662;2023-02-05T08:05:25;3.60;99.90
11894;DHT22;6006;49.696;8.662;2023-02-05T08:07:52;3.60;99.90
11894;DHT22;6006;49.696;8.662;2023-02-05T08:10:19;3.60;99.90
11894;DHT22;6006;49.696;8.662;2023-02-05T08:12:46;3.60;99.90
11894;DHT22;6006;49.696;8.662;2023-02-05T08:15:15;3.60;99.90
11894;DHT22;6006;49.696;8.662;2023-02-05T08:17:42;3.60;99.90
11894;DHT22;6006;49.696;8.662;2023-02-05T08:20:10;3.60;99.90
11894;DHT22;6006;49.696;8.662;2023-02-05T08:22:39;3.60;99.90
11894;DHT22;6006;49.696;8.662;2023-02-05T08:25:08;3.60;99.90
11894;DHT22;6006;49.696;8.662;2023-02-05T08:27:38;3.60;99.90
11894;DHT22;6006;49.696;8.662;2023-02-05T08:30:08;3.70;99.90
11894;DHT22;6006;49.696;8.662;2023-02-05T08:32:37;3.70;99.90
11894;DHT22;6006;49.696;8.662;2023-02-05T08:35:04;3.70;99.90
11894;DHT22;6006;49.696;8.662;2023-02-05T08:37:31;3.80;99.90
11894;DHT22;6006;49.696;8.662;2023-02-05T08:39:58;3.80;99.90
11894;DHT22;6006;49.696;8.662;2023-02-05T08:42:25;3.80;99.90
11894;DHT22;6006;49.696;8.662;2023-02-05T08:44:52;3.80;99.90
11894;DHT22;6006;49.696;8.662;2023-02-05T08:47:24;3.80;99.90
11894;DHT22;6006;49.696;8.662;2023-02-05T08:49:53;3.80;99.90
11894;DHT22;6006;49.696;8.662;2023-02-05T08:52:20;3.90;99.90
11894;DHT22;6006;49.696;8.662;2023-02-05T08:54:47;3.80;99.90
11894;DHT22;6006;49.696;8.662;2023-02-05T08:57:14;3.90;99.90
11894;DHT22;6006;49.696;8.662;2023-02-05T08:59:41;3.90;99.90
11894;DHT22;6006;49.696;8.662;2023-02-05T09:02:11;3.90;99.90
11894;DHT22;6006;49.696;8.662;2023-02-05T09:04:39;4.00;99.90
11894;DHT22;6006;49.696;8.662;2023-02-05T09:07:07;4.10;99.90
11894;DHT22;6006;49.696;8.662;2023-02-05T09:09:34;4.10;99.90
11894;DHT22;6006;49.696;8.662;2023-02-05T09:12:03;4.10;99.90
11894;DHT22;6006;49.696;8.662;2023-02-05T09:14:30;4.20;99.90
11894;DHT22;6006;49.696;8.662;2023-02-05T09:17:01;4.20;99.90
11894;DHT22;6006;49.696;8.662;2023-02-05T09:19:28;4.20;99.90
11894;DHT22;6006;49.696;8.662;2023-02-05T09:21:56;4.20;99.90
11894;DHT22;6006;49.696;8.662;2023-02-05T09:24:25;4.20;99.90
11894;DHT22;6006;49.696;8.662;2023-02-05T09:26:52;4.20;99.90
11894;DHT22;6006;49.696;8.662;2023-02-05T09:29:19;4.20;99.90
11894;DHT22;6006;49.696;8.662;2023-02-05T09:31:45;4.20;99.90
11894;DHT22;6006;49.696;8.662;2023-02-05T09:34:13;4.10;99.90
11894;DHT22;6006;49.696;8.662;2023-02-05T09:36:40;4.10;99.90
11894;DHT22;6006;49.696;8.662;2023-02-05T09:39:08;4.10;99.90
11894;DHT22;6006;49.696;8.662;2023-02-05T09:41:41;4.20;99.90
11894;DHT22;6006;49.696;8.662;2023-02-05T09:44:14;4.20;99.90
11894;DHT22;6006;49.696;8.662;2023-02-05T09:46:46;4.20;99.90
11894;DHT22;6006;49.696;8.662;2023-02-05T09:49:18;4.20;99.90
11894;DHT22;6006;49.696;8.662;2023-02-05T09:51:49;4.20;99.90
11894;DHT22;6006;49.696;8.662;2023-02-05T09:54:20;4.30;99.90
11894;DHT22;6006;49.696;8.662;2023-02-05T09:56:51;4.40;99.90
11894;DHT22;6006;49.696;8.662;2023-02-05T09:59:21;4.30;99.90
11894;DHT22;6006;49.696;8.662;2023-02-05T10:01:51;4.30;99.90
11894;DHT22;6006;49.696;8.662;2023-02-05T10:04:18;4.30;99.90
11894;DHT22;6006;49.696;8.662;2023-02-05T10:07:15;4.40;99.90
11894;DHT22;6006;49.696;8.662;2023-02-05T10:09:56;4.40;99.90
11894;DHT22;6006;49.696;8.662;2023-02-05T10:12:36;4.40;99.90
11894;DHT22;6006;49.696;8.662;2023-02-05T10:15:19;4.50;99.90
11894;DHT22;6006;49.696;8.662;2023-02-05T10:17:58;4.50;99.90
11894;DHT22;6006;49.696;8.662;2023-02-05T10:20:43;4.50;99.90
11894;DHT22;6006;49.696;8.662;2023-02-05T10:23:15;4.50;99.90
11894;DHT22;6006;49.696;8.662;2023-02-05T10:25:57;4.60;99.90
11894;DHT22;6006;49.696;8.662;2023-02-05T10:28:53;4.60;99.90
11894;DHT22;6006;49.696;8.662;2023-02-05T10:31:33;4.50;99.90
11894;DHT22;6006;49.696;8.662;2023-02-05T10:34:15;4.50;99.90
11894;DHT22;6006;49.696;8.662;2023-02-05T10:36:43;4.50;99.90
11894;DHT22;6006;49.696;8.662;2023-02-05T10:39:13;4.50;99.90
11894;DHT22;6006;49.696;8.662;2023-02-05T10:41:44;4.50;99.90
11894;DHT22;6006;49.696;8.662;2023-02-05T10:44:19;4.50;99.90
11894;DHT22;6006;49.696;8.662;2023-02-05T10:46:51;4.60;99.90
11894;DHT22;6006;49.696;8.662;2023-02-05T10:49:23;4.60;99.90
11894;DHT22;6006;49.696;8.662;2023-02-05T10:51:51;4.60;99.90
11894;DHT22;6006;49.696;8.662;2023-02-05T10:54:24;4.50;99.90
11894;DHT22;6006;49.696;8.662;2023-02-05T10:56:52;4.50;99.90
11894;DHT22;6006;49.696;8.662;2023-02-05T10:59:23;4.50;99.90
11894;DHT22;6006;49.696;8.662;2023-02-05T11:01:50;4.50;99.90
11894;DHT22;6006;49.696;8.662;2023-02-05T11:04:24;4.60;99.90
11894;DHT22;6006;49.696;8.662;2023-02-05T11:06:53;4.50;99.90
11894;DHT22;6006;49.696;8.662;2023-02-05T11:09:31;4.50;99.90
11894;DHT22;6006;49.696;8.662;2023-02-05T11:12:00;4.50;99.90
11894;DHT22;6006;49.696;8.662;2023-02-05T11:14:32;4.50;99.90
11894;DHT22;6006;49.696;8.662;2023-02-05T11:17:06;4.50;99.90
11894;DHT22;6006;49.696;8.662;2023-02-05T11:19:34;4.50;99.90
11894;DHT22;6006;49.696;8.662;2023-02-05T11:22:03;4.60;99.90
11894;DHT22;6006;49.696;8.662;2023-02-05T11:24:31;4.70;99.90
11894;DHT22;6006;49.696;8.662;2023-02-05T11:27:26;4.60;99.90
11894;DHT22;6006;49.696;8.662;2023-02-05T11:29:56;4.60;99.90
11894;DHT22;6006;49.696;8.662;2023-02-05T11:32:32;4.60;99.90
11894;DHT22;6006;49.696;8.662;2023-02-05T11:35:12;4.70;99.90
11894;DHT22;6006;49.696;8.662;2023-02-05T11:37:42;4.70;99.90
11894;DHT22;6006;49.696;8.662;2023-02-05T11:40:20;4.70;99.90
11894;DHT22;6006;49.696;8.662;2023-02-05T11:42:58;4.70;99.90
11894;DHT22;6006;49.696;8.662;2023-02-05T11:45:28;4.80;99.90
11894;DHT22;6006;49.696;8.662;2023-02-05T11:47:56;4.80;99.90
11894;DHT22;6006;49.696;8.662;2023-02-05T11:50:24;4.90;99.90
11894;DHT22;6006;49.696;8.662;2023-02-05T11:52:53;4.90;99.90
11894;DHT22;6006;49.696;8.662;2023-02-05T11:55:24;5.00;99.90
11894;DHT22;6006;49.696;8.662;2023-02-05T11:57:58;5.10;99.90
11894;DHT22;6006;49.696;8.662;2023-02-05T12:00:27;5.10;99.90
11894;DHT22;6006;49.696;8.662;2023-02-05T12:03:03;5.20;99.90
11894;DHT22;6006;49.696;8.662;2023-02-05T12:05:33;5.30;99.90
11894;DHT22;6006;49.696;8.662;2023-02-05T12:08:05;5.30;99.90
11894;DHT22;6006;49.696;8.662;2023-02-05T12:10:39;5.30;99.90
11894;DHT22;6006;49.696;8.662;2023-02-05T12:13:17;5.30;99.90
11894;DHT22;6006;49.696;8.662;2023-02-05T12:15:58;5.40;99.90
11894;DHT22;6006;49.696;8.662;2023-02-05T12:18:36;5.40;99.90
11894;DHT22;6006;49.696;8.662;2023-02-05T12:21:15;5.30;99.90
11894;DHT22;6006;49.696;8.662;2023-02-05T12:24:05;5.40;99.90
11894;DHT22;6006;49.696;8.662;2023-02-05T12:26:38;5.40;99.90
11894;DHT22;6006;49.696;8.662;2023-02-05T12:29:16;5.40;99.90
11894;DHT22;6006;49.696;8.662;2023-02-05T12:31:58;5.50;99.90
11894;DHT22;6006;49.696;8.662;2023-02-05T12:34:33;5.50;99.90
11894;DHT22;6006;49.696;8.662;2023-02-05T12:37:09;5.50;99.90
11894;DHT22;6006;49.696;8.662;2023-02-05T12:39:41;5.50;99.90
11894;DHT22;6006;49.696;8.662;2023-02-05T12:45:25;5.50;99.90
11894;DHT22;6006;49.696;8.662;2023-02-05T12:48:04;5.50;99.90
11894;DHT22;6006;49.696;8.662;2023-02-05T12:50:52;5.60;99.90
11894;DHT22;6006;49.696;8.662;2023-02-05T12:53:36;5.70;99.90
11894;DHT22;6006;49.696;8.662;2023-02-05T12:56:20;5.70;99.90
11894;DHT22;6006;49.696;8.662;2023-02-05T12:58:55;5.70;99.90
11894;DHT22;6006;49.696;8.662;2023-02-05T13:01:38;5.70;99.90
11894;DHT22;6006;49.696;8.662;2023-02-05T13:04:18;5.70;99.90
11894;DHT22;6006;49.696;8.662;2023-02-05T13:06:50;5.70;99.90
11894;DHT22;6006;49.696;8.662;2023-02-05T13:09:23;5.60;99.90
11894;DHT22;6006;49.696;8.662;2023-02-05T13:11:55;5.50;99.90
11894;DHT22;6006;49.696;8.662;2023-02-05T13:14:25;5.50;99.90
11894;DHT22;6006;49.696;8.662;2023-02-05T13:16:59;5.50;99.90
11894;DHT22;6006;49.696;8.662;2023-02-05T13:19:32;5.50;99.90
11894;DHT22;6006;49.696;8.662;2023-02-05T13:22:04;5.40;99.90
11894;DHT22;6006;49.696;8.662;2023-02-05T13:24:53;5.20;99.90
11894;DHT22;6006;49.696;8.662;2023-02-05T13:27:41;5.30;99.90
11894;DHT22;6006;49.696;8.662;2023-02-05T13:30:30;5.30;99.90
11894;DHT22;6006;49.696;8.662;2023-02-05T13:33:03;5.30;99.90
11894;DHT22;6006;49.696;8.662;2023-02-05T13:35:34;5.30;99.90
11894;DHT22;6006;49.696;8.662;2023-02-05T13:38:26;5.30;99.90
11894;DHT22;6006;49.696;8.662;2023-02-05T13:41:38;5.40;99.90
11894;DHT22;6006;49.696;8.662;2023-02-05T13:44:21;5.40;99.90
11894;DHT22;6006;49.696;8.662;2023-02-05T13:47:20;5.50;99.90
11894;DHT22;6006;49.696;8.662;2023-02-05T13:50:11;5.50;99.90
11894;DHT22;6006;49.696;8.662;2023-02-05T13:53:13;5.60;99.90
11894;DHT22;6006;49.696;8.662;2023-02-05T13:58:47;5.70;99.90
11894;DHT22;6006;49.696;8.662;2023-02-05T14:01:19;5.70;99.90
11894;DHT22;6006;49.696;8.662;2023-02-05T14:03:55;5.70;99.90
11894;DHT22;6006;49.696;8.662;2023-02-05T14:06:29;5.70;99.90
11894;DHT22;6006;49.696;8.662;2023-02-05T14:09:04;5.70;99.90
11894;DHT22;6006;49.696;8.662;2023-02-05T14:11:52;5.80;99.90
11894;DHT22;6006;49.696;8.662;2023-02-05T14:14:26;5.80;99.90
11894;DHT22;6006;49.696;8.662;2023-02-05T14:16:54;5.90;99.90
11894;DHT22;6006;49.696;8.662;2023-02-05T14:19:25;5.90;99.90
11894;DHT22;6006;49.696;8.662;2023-02-05T14:22:10;6.00;99.90
11894;DHT22;6006;49.696;8.662;2023-02-05T14:24:47;6.00;99.90
11894;DHT22;6006;49.696;8.662;2023-02-05T14:30:48;5.90;99.90
11894;DHT22;6006;49.696;8.662;2023-02-05T14:33:32;5.90;99.90
11894;DHT22;6006;49.696;8.662;2023-02-05T14:39:19;5.80;99.90
11894;DHT22;6006;49.696;8.662;2023-02-05T14:41:52;5.80;99.90
11894;DHT22;6006;49.696;8.662;2023-02-05T14:44:26;5.70;99.90
11894;DHT22;6006;49.696;8.662;2023-02-05T14:47:05;5.70;99.90
11894;DHT22;6006;49.696;8.662;2023-02-05T14:49:45;5.70;99.90
11894;DHT22;6006;49.696;8.662;2023-02-05T14:52:24;5.70;99.90
11894;DHT22;6006;49.696;8.662;2023-02-05T14:54:55;5.70;99.90
11894;DHT22;6006;49.696;8.662;2023-02-05T14:57:28;5.70;99.90
11894;DHT22;6006;49.696;8.662;2023-02-05T14:59:58;5.70;99.90
11894;DHT22;6006;49.696;8.662;2023-02-05T15:05:47;5.70;99.90
11894;DHT22;6006;49.696;8.662;2023-02-05T15:08:20;5.70;99.90
11894;DHT22;6006;49.696;8.662;2023-02-05T15:10:51;5.70;99.90
11894;DHT22;6006;49.696;8.662;2023-02-05T15:13:22;5.60;99.90
11894;DHT22;6006;49.696;8.662;2023-02-05T15:16:14;5.50;99.90
11894;DHT22;6006;49.696;8.662;2023-02-05T15:18:42;5.50;99.90
11894;DHT22;6006;49.696;8.662;2023-02-05T15:21:14;5.50;99.90
11894;DHT22;6006;49.696;8.662;2023-02-05T15:23:44;5.50;99.90
11894;DHT22;6006;49.696;8.662;2023-02-05T15:26:20;5.50;99.90
11894;DHT22;6006;49.696;8.662;2023-02-05T15:28:56;5.40;99.90
11894;DHT22;6006;49.696;8.662;2023-02-05T15:31:36;5.30;99.90
11894;DHT22;6006;49.696;8.662;2023-02-05T15:34:22;5.40;99.90
11894;DHT22;6006;49.696;8.662;2023-02-05T15:36:55;5.40;99.90
11894;DHT22;6006;49.696;8.662;2023-02-05T15:39:29;5.40;99.90
11894;DHT22;6006;49.696;8.662;2023-02-05T15:41:58;5.40;99.90
11894;DHT22;6006;49.696;8.662;2023-02-05T15:44:29;5.30;99.90
11894;DHT22;6006;49.696;8.662;2023-02-05T15:46:58;5.30;99.90
11894;DHT22;6006;49.696;8.662;2023-02-05T15:49:33;5.30;99.90
11894;DHT22;6006;49.696;8.662;2023-02-05T15:52:01;5.30;99.90
11894;DHT22;6006;49.696;8.662;2023-02-05T15:54:31;5.20;99.90
11894;DHT22;6006;49.696;8.662;2023-02-05T15:56:58;5.20;99.90
11894;DHT22;6006;49.696;8.662;2023-02-05T15:59:28;5.20;99.90
11894;DHT22;6006;49.696;8.662;2023-02-05T16:02:01;5.20;99.90
11894;DHT22;6006;49.696;8.662;2023-02-05T16:04:31;5.20;99.90
11894;DHT22;6006;49.696;8.662;2023-02-05T16:06:58;5.20;99.90
11894;DHT22;6006;49.696;8.662;2023-02-05T16:09:27;5.10;99.90
11894;DHT22;6006;49.696;8.662;2023-02-05T16:11:54;5.10;99.90
11894;DHT22;6006;49.696;8.662;2023-02-05T16:14:23;5.10;99.90
11894;DHT22;6006;49.696;8.662;2023-02-05T16:16:58;5.10;99.90
11894;DHT22;6006;49.696;8.662;2023-02-05T16:19:30;5.00;99.90
11894;DHT22;6006;49.696;8.662;2023-02-05T16:22:02;5.00;99.90
11894;DHT22;6006;49.696;8.662;2023-02-05T16:24:33;5.00;99.90
11894;DHT22;6006;49.696;8.662;2023-02-05T16:27:05;4.90;99.90
11894;DHT22;6006;49.696;8.662;2023-02-05T16:29:37;4.90;99.90
11894;DHT22;6006;49.696;8.662;2023-02-05T16:32:13;4.90;99.90
11894;DHT22;6006;49.696;8.662;2023-02-05T16:34:41;4.90;99.90
11894;DHT22;6006;49.696;8.662;2023-02-05T16:37:14;4.90;99.90
11894;DHT22;6006;49.696;8.662;2023-02-05T16:39:44;4.80;99.90
11894;DHT22;6006;49.696;8.662;2023-02-05T16:42:25;4.80;99.90
11894;DHT22;6006;49.696;8.662;2023-02-05T16:45:04;4.70;99.90
11894;DHT22;6006;49.696;8.662;2023-02-05T16:47:33;4.70;99.90